createdAt,value
2023-02-19T14:55:37.921Z,-22968.80
2023-02-19T14:58:17.373Z,-22969.68
2023-02-19T15:00:44.879Z,-22970.03
2023-02-19T15:03:30.195Z,-22969.82
2023-02-19T15:06:17.053Z,-22969.51
2023-02-19T15:08:48.318Z,-22968.83
2023-02-19T15:11:18.415Z,-22967.88
2023-02-19T15:13:49.643Z,-22967.44
2023-02-19T15:16:18.509Z,-22968.39
2023-02-19T15:18:46.322Z,-22968.70
2023-02-19T15:21:22.291Z,-22969.11
2023-02-19T15:23:49.333Z,-22969.99
2023-02-19T15:26:20.938Z,-22970.71
2023-02-19T15:28:55.848Z,-22970.84
2023-02-19T15:31:22.688Z,-22969.68
2023-02-19T15:33:51.540Z,-22968.15
2023-02-19T15:36:28.612Z,-22966.62
2023-02-19T15:39:00.341Z,-22965.08
2023-02-19T15:41:32.192Z,-22964.40
2023-02-19T15:44:08.533Z,-22963.21
2023-02-19T15:46:55.291Z,-22961.84
2023-02-19T15:49:30.377Z,-22961.57
2023-02-19T15:52:00.343Z,-22960.31
2023-02-19T15:54:30.130Z,-22959.46
2023-02-19T15:56:58.854Z,-22958.94
2023-02-19T15:59:44.375Z,-22958.91
2023-02-19T16:02:11.796Z,-22957.99
2023-02-19T16:04:41.311Z,-22957.96
2023-02-19T16:07:23.854Z,-22958.74
2023-02-19T16:10:15.795Z,-22959.66
2023-02-19T16:12:42.669Z,-22960.99
2023-02-19T16:15:14.198Z,-22962.08
2023-02-19T16:17:42.856Z,-22963.35
2023-02-19T16:20:21.271Z,-22963.72
2023-02-19T16:22:48.584Z,-22963.34
2023-02-19T16:25:27.991Z,-22961.37
2023-02-19T16:27:55.247Z,-22960.38
2023-02-19T16:30:27.952Z,-22958.47
2023-02-19T16:33:36.395Z,-22957.55
2023-02-19T16:36:35.618Z,-22956.32
2023-02-19T16:39:09.095Z,-22954.31
2023-02-19T16:41:39.108Z,-22953.53
2023-02-19T16:44:35.401Z,-22953.12
2023-02-19T16:47:06.500Z,-22952.61
2023-02-19T16:49:33.348Z,-22952.09
2023-02-19T16:52:03.830Z,-22951.65
2023-02-19T16:54:34.178Z,-22951.28
2023-02-19T16:57:03.963Z,-22951.89
2023-02-19T16:59:34.258Z,-22952.78
2023-02-19T17:02:04.781Z,-22953.97
2023-02-19T17:04:36.383Z,-22954.55
2023-02-19T17:07:03.140Z,-22954.48
2023-02-19T17:09:29.940Z,-22953.73
2023-02-19T17:12:00.167Z,-22952.43
2023-02-19T17:14:48.976Z,-22951.17
2023-02-19T17:17:19.953Z,-22949.88
2023-02-19T17:19:54.906Z,-22948.48
2023-02-19T17:22:24.444Z,-22947.46
2023-02-19T17:24:51.295Z,-22946.19
2023-02-19T17:27:19.078Z,-22944.21
2023-02-19T17:30:15.958Z,-22941.93
2023-02-19T17:32:42.849Z,-22940.09
2023-02-19T17:35:09.917Z,-22938.93
2023-02-19T17:37:38.775Z,-22938.04
2023-02-19T17:40:33.741Z,-22937.22
2023-02-19T17:43:05.250Z,-22936.61
2023-02-19T17:45:37.853Z,-22935.58
2023-02-19T17:48:09.497Z,-22935.21
2023-02-19T17:50:36.601Z,-22934.09
2023-02-19T17:53:03.918Z,-22932.31
2023-02-19T17:55:32.733Z,-22930.95
2023-02-19T17:58:02.074Z,-22929.21
2023-02-19T18:00:32.251Z,-22927.33
2023-02-19T18:03:06.948Z,-22925.80
2023-02-19T18:05:37.266Z,-22923.92
2023-02-19T18:08:04.154Z,-22922.76
2023-02-19T18:10:31.928Z,-22922.05
2023-02-19T18:12:58.855Z,-22922.18
2023-02-19T18:15:28.354Z,-22923.21
2023-02-19T18:17:55.729Z,-22924.02
2023-02-19T18:20:26.862Z,-22924.43
2023-02-19T18:22:54.338Z,-22925.25
2023-02-19T18:25:21.511Z,-22925.11
2023-02-19T18:27:48.591Z,-22925.97
2023-02-19T18:30:18.590Z,-22926.48
2023-02-19T18:32:48.523Z,-22927.13
2023-02-19T18:35:16.932Z,-22927.16
2023-02-19T18:37:45.571Z,-22927.03
2023-02-19T18:40:12.638Z,-22927.13
2023-02-19T18:42:41.772Z,-22927.30
2023-02-19T18:45:09.079Z,-22927.09
2023-02-19T18:47:36.052Z,-22926.65
2023-02-19T18:50:02.904Z,-22926.14
2023-02-19T18:52:30.203Z,-22925.39
2023-02-19T18:54:57.192Z,-22924.19
2023-02-19T18:57:24.854Z,-22923.68
2023-02-19T18:59:52.036Z,-22922.49
2023-02-19T19:02:19.249Z,-22920.47
2023-02-19T19:04:50.384Z,-22918.67
2023-02-19T19:07:17.252Z,-22916.82
2023-02-19T19:09:49.079Z,-22915.19
2023-02-19T19:12:16.644Z,-22913.55
2023-02-19T19:14:44.048Z,-22911.23
2023-02-19T19:17:10.907Z,-22910.24
2023-02-19T19:19:37.783Z,-22909.25
2023-02-19T19:22:04.824Z,-22908.74
2023-02-19T19:24:33.684Z,-22907.85
2023-02-19T19:27:00.583Z,-22906.59
2023-02-19T19:29:28.241Z,-22904.95
2023-02-19T19:31:55.409Z,-22902.76
2023-02-19T19:34:22.161Z,-22900.00
2023-02-19T19:36:49.586Z,-22897.88
2023-02-19T19:39:17.422Z,-22896.07
2023-02-19T19:41:44.747Z,-22894.37
2023-02-19T19:44:11.760Z,-22893.79
2023-02-19T19:46:45.318Z,-22893.34
2023-02-19T19:49:16.971Z,-22893.44
2023-02-19T19:51:43.768Z,-22895.01
2023-02-19T19:54:11.533Z,-22896.45
2023-02-19T19:56:42.656Z,-22898.36
2023-02-19T19:59:10.933Z,-22900.41
2023-02-19T20:01:37.900Z,-22901.60
2023-02-19T20:04:05.169Z,-22902.11
2023-02-19T20:06:32.330Z,-22902.83
2023-02-19T20:09:03.694Z,-22902.83
2023-02-19T20:11:31.845Z,-22902.73
2023-02-19T20:13:59.878Z,-22902.29
2023-02-19T20:16:31.640Z,-22902.63
2023-02-19T20:18:58.452Z,-22903.04
2023-02-19T20:21:25.898Z,-22903.75
2023-02-19T20:23:52.813Z,-22903.61
2023-02-19T20:26:23.865Z,-22903.48
2023-02-19T20:28:51.969Z,-22902.63
2023-02-19T20:31:19.402Z,-22901.09
2023-02-19T20:33:47.597Z,-22899.11
2023-02-19T20:36:14.551Z,-22896.93
2023-02-19T20:38:43.236Z,-22894.74
2023-02-19T20:41:11.617Z,-22892.59
2023-02-19T20:43:40.274Z,-22890.51
2023-02-19T20:46:08.564Z,-22888.46
2023-02-19T20:48:35.504Z,-22887.23
2023-02-19T20:51:05.055Z,-22886.99
2023-02-19T20:53:31.964Z,-22887.06
2023-02-19T20:55:58.870Z,-22886.72
2023-02-19T20:58:26.208Z,-22886.31
2023-02-19T21:00:58.076Z,-22885.80
2023-02-19T21:03:25.556Z,-22884.88
2023-02-19T21:05:52.420Z,-22883.48
2023-02-19T21:08:19.422Z,-22881.67
2023-02-19T21:10:46.308Z,-22879.79
2023-02-19T21:13:17.667Z,-22878.12
2023-02-19T21:15:45.526Z,-22876.34
2023-02-19T21:18:12.332Z,-22875.21
2023-02-19T21:20:39.836Z,-22874.57
2023-02-19T21:23:07.024Z,-22874.13
2023-02-19T21:25:36.223Z,-22874.43
2023-02-19T21:28:04.515Z,-22874.29
2023-02-19T21:30:36.564Z,-22873.92
2023-02-19T21:33:04.312Z,-22873.68
2023-02-19T21:35:31.621Z,-22872.93
2023-02-19T21:37:58.390Z,-22872.04
2023-02-19T21:40:25.191Z,-22871.36
2023-02-19T21:42:52.314Z,-22870.30
2023-02-19T21:45:19.397Z,-22869.72
2023-02-19T21:47:46.841Z,-22869.72
2023-02-19T21:50:13.941Z,-22869.89
2023-02-19T21:52:42.325Z,-22869.89
2023-02-19T21:55:09.810Z,-22869.89
2023-02-19T21:57:36.644Z,-22869.65
2023-02-19T22:00:06.154Z,-22869.34
2023-02-19T22:02:32.952Z,-22868.59
2023-02-19T22:04:59.759Z,-22867.02
2023-02-19T22:07:26.561Z,-22865.55
2023-02-19T22:09:53.657Z,-22863.91
2023-02-19T22:12:20.782Z,-22862.21
2023-02-19T22:14:49.454Z,-22861.32
2023-02-19T22:17:16.142Z,-22860.64
2023-02-19T22:19:42.939Z,-22861.08
2023-02-19T22:22:10.194Z,-22861.39
2023-02-19T22:24:36.946Z,-22861.39
2023-02-19T22:27:03.690Z,-22861.18
2023-02-19T22:29:31.531Z,-22860.16
2023-02-19T22:31:58.429Z,-22858.93
2023-02-19T22:34:25.481Z,-22857.22
2023-02-19T22:36:57.613Z,-22855.75
2023-02-19T22:39:44.010Z,-22855.31
2023-02-19T22:42:10.861Z,-22854.96
2023-02-19T22:44:38.636Z,-22854.80
2023-02-19T22:47:10.193Z,-22855.00
2023-02-19T22:49:39.054Z,-22855.24
2023-02-19T22:52:07.661Z,-22854.08
2023-02-19T22:54:37.152Z,-22852.88
2023-02-19T22:57:05.327Z,-22851.86
2023-02-19T23:02:57.983Z,-22849.47
2023-02-19T23:05:26.844Z,-22846.97
2023-02-19T23:07:57.185Z,-22845.40
2023-02-19T23:10:27.196Z,-22844.41
2023-02-19T23:12:56.038Z,-22843.43
2023-02-19T23:15:27.801Z,-22843.08
2023-02-19T23:17:57.914Z,-22843.32
2023-02-19T23:20:26.748Z,-22843.73
2023-02-19T23:22:55.088Z,-22844.24
2023-02-19T23:25:23.789Z,-22844.11
2023-02-19T23:27:53.092Z,-22843.46
2023-02-19T23:30:22.058Z,-22843.22
2023-02-19T23:32:51.019Z,-22842.22
2023-02-19T23:35:19.820Z,-22840.90
2023-02-19T23:37:48.304Z,-22839.46
2023-02-19T23:40:19.076Z,-22838.95
2023-02-19T23:42:47.295Z,-22838.95
2023-02-19T23:45:16.815Z,-22839.84
2023-02-19T23:47:45.420Z,-22840.63
2023-02-19T23:50:15.395Z,-22841.07
2023-02-19T23:52:43.436Z,-22840.07
2023-02-19T23:55:11.714Z,-22839.77
2023-02-19T23:57:40.075Z,-22839.22
